createdAt,value
2017-09-23T00:00:17.110Z,14.55
2017-09-23T00:00:57.646Z,14.55
2017-09-23T00:01:38.189Z,14.57
2017-09-23T00:02:18.729Z,14.58
2017-09-23T00:02:59.260Z,14.6
2017-09-23T00:03:39.790Z,14.47
2017-09-23T00:04:20.315Z,14.55
2017-09-23T00:05:00.848Z,14.54
2017-09-23T00:05:41.391Z,14.39
2017-09-23T00:06:21.925Z,14.4
2017-09-23T00:07:02.459Z,14.42
2017-09-23T00:07:42.999Z,14.37
2017-09-23T00:08:23.524Z,14.45
2017-09-23T00:09:04.071Z,14.37
2017-09-23T00:09:44.597Z,14.37
2017-09-23T00:10:25.136Z,14.37
2017-09-23T00:11:05.664Z,14.39
2017-09-23T00:11:46.190Z,14.39
2017-09-23T00:12:26.731Z,14.4
2017-09-23T00:13:07.275Z,14.39
2017-09-23T00:13:47.820Z,14.24
2017-09-23T00:14:28.352Z,14.25
2017-09-23T00:15:08.892Z,14.27
2017-09-23T00:15:49.417Z,14.18
2017-09-23T00:16:29.955Z,14.22
2017-09-23T00:17:10.493Z,14.25
2017-09-23T00:17:51.027Z,14.24
2017-09-23T00:18:31.574Z,14.24
2017-09-23T00:19:12.097Z,14.25
2017-09-23T00:19:52.634Z,14.18
2017-09-23T00:20:33.164Z,14.15
2017-09-23T00:21:13.702Z,14.14
2017-09-23T00:21:54.250Z,14.07
2017-09-23T00:22:34.777Z,14.14
2017-09-23T00:23:15.322Z,14.02
2017-09-23T00:23:55.846Z,14.14
2017-09-23T00:24:36.387Z,14.12
2017-09-23T00:25:16.927Z,14.03
2017-09-23T00:25:57.463Z,14.03
2017-09-23T00:26:38.002Z,14.04
2017-09-23T00:27:18.534Z,13.99
2017-09-23T00:27:59.072Z,14
2017-09-23T00:28:39.610Z,14.02
2017-09-23T00:29:20.152Z,14
2017-09-23T00:30:00.690Z,13.96
2017-09-23T00:30:41.227Z,14.03
2017-09-23T00:31:21.761Z,14.02
2017-09-23T00:32:02.300Z,13.96
2017-09-23T00:32:42.836Z,13.92
2017-09-23T00:33:23.429Z,13.89
2017-09-23T00:34:03.968Z,13.88
2017-09-23T00:34:44.495Z,13.92
2017-09-23T00:35:25.042Z,13.92
2017-09-23T00:36:05.582Z,13.96
2017-09-23T00:36:46.123Z,13.91
2017-09-23T00:37:26.656Z,13.92
2017-09-23T00:38:07.193Z,14
2017-09-23T00:38:47.713Z,13.96
2017-09-23T00:39:28.235Z,13.95
2017-09-23T00:40:08.773Z,13.97
2017-09-23T00:40:49.309Z,14.02
2017-09-23T00:41:29.838Z,13.99
2017-09-23T00:42:10.375Z,14.03
2017-09-23T00:42:50.908Z,14.03
2017-09-23T00:43:31.452Z,13.97
2017-09-23T00:44:11.987Z,14.02
2017-09-23T00:44:52.528Z,14.02
2017-09-23T00:45:33.062Z,13.99
2017-09-23T00:46:13.594Z,13.99
2017-09-23T00:46:54.138Z,14.03
2017-09-23T00:47:34.673Z,14.03
2017-09-23T00:48:15.215Z,14.02
2017-09-23T00:48:55.750Z,14.06
2017-09-23T00:49:36.286Z,14.09
2017-09-23T00:50:16.821Z,14.07
2017-09-23T00:50:57.358Z,14.12
2017-09-23T00:51:37.897Z,14.03
2017-09-23T00:52:18.437Z,14.06
2017-09-23T00:52:59.030Z,14.1
2017-09-23T00:53:39.578Z,14.04
2017-09-23T00:54:20.117Z,14.15
2017-09-23T00:55:00.651Z,14.15
2017-09-23T00:55:41.180Z,14.24
2017-09-23T00:56:21.721Z,14.12
2017-09-23T00:57:02.249Z,14.12
2017-09-23T00:57:42.793Z,14.07
2017-09-23T00:58:23.326Z,14.24
2017-09-23T00:59:03.853Z,14.25
2017-09-23T00:59:44.371Z,14.27
2017-09-23T01:00:24.911Z,14.21
2017-09-23T01:01:05.448Z,14.21
2017-09-23T01:01:45.990Z,14.24
2017-09-23T01:02:26.530Z,14.25
2017-09-23T01:03:07.069Z,14.25
2017-09-23T01:03:47.603Z,14.22
2017-09-23T01:04:28.137Z,14.22
2017-09-23T01:05:08.674Z,14.25
2017-09-23T01:05:49.223Z,14.22
2017-09-23T01:06:29.755Z,14.22
2017-09-23T01:07:10.298Z,14.2
2017-09-23T01:07:50.829Z,14.22
2017-09-23T01:08:31.361Z,14.22
2017-09-23T01:09:11.901Z,14.2
2017-09-23T01:09:52.444Z,14.22
2017-09-23T01:10:32.979Z,14.32
2017-09-23T01:11:13.526Z,14.2
2017-09-23T01:11:54.057Z,14.22
2017-09-23T01:12:34.598Z,14.25
2017-09-23T01:13:15.131Z,14.21
2017-09-23T01:13:55.667Z,14.25
2017-09-23T01:14:36.203Z,14.27
2017-09-23T01:15:16.738Z,14.21
2017-09-23T01:15:57.275Z,14.32
2017-09-23T01:16:37.816Z,14.33
2017-09-23T01:17:18.354Z,14.24
2017-09-23T01:17:58.896Z,14.37
2017-09-23T01:18:39.433Z,14.29
2017-09-23T01:19:19.956Z,14.33
2017-09-23T01:20:00.500Z,14.28
2017-09-23T01:20:41.034Z,14.29
2017-09-23T01:21:21.578Z,14.37
2017-09-23T01:22:02.117Z,14.36
2017-09-23T01:22:42.659Z,14.33
2017-09-23T01:23:23.194Z,14.35
2017-09-23T01:24:03.726Z,14.36
2017-09-23T01:24:44.259Z,14.32
2017-09-23T01:25:24.813Z,14.37
2017-09-23T01:26:05.360Z,14.33
2017-09-23T01:26:45.895Z,14.35
2017-09-23T01:27:26.517Z,14.33
2017-09-23T01:28:07.057Z,14.35
2017-09-23T01:28:47.580Z,14.4
2017-09-23T01:29:28.120Z,14.46
2017-09-23T01:30:08.666Z,14.35
2017-09-23T01:30:49.198Z,14.43
2017-09-23T01:31:29.731Z,14.39
2017-09-23T01:32:10.266Z,14.43
2017-09-23T01:32:50.797Z,14.43
2017-09-23T01:33:31.337Z,14.42
2017-09-23T01:34:11.881Z,14.42
2017-09-23T01:34:52.414Z,14.4
2017-09-23T01:35:32.945Z,14.5
2017-09-23T01:36:13.488Z,14.45
2017-09-23T01:36:54.023Z,14.42
2017-09-23T01:37:34.560Z,14.46
2017-09-23T01:38:15.089Z,14.45
2017-09-23T01:38:55.617Z,14.45
2017-09-23T01:39:36.162Z,14.42
2017-09-23T01:40:16.698Z,14.46
2017-09-23T01:40:57.237Z,14.5
2017-09-23T01:41:37.777Z,14.58
2017-09-23T01:42:18.318Z,14.5
2017-09-23T01:42:58.854Z,14.6
2017-09-23T01:43:39.381Z,14.54
2017-09-23T01:44:19.924Z,14.57
2017-09-23T01:45:00.459Z,14.6
2017-09-23T01:45:41.002Z,14.55
2017-09-23T01:46:21.528Z,14.54
2017-09-23T01:47:02.071Z,14.55
2017-09-23T01:47:42.629Z,14.57
2017-09-23T01:48:23.147Z,14.55
2017-09-23T01:49:03.667Z,14.55
2017-09-23T01:49:44.206Z,14.6
2017-09-23T01:50:24.737Z,14.55
2017-09-23T01:51:05.282Z,14.58
2017-09-23T01:51:45.819Z,14.64
2017-09-23T01:52:26.359Z,14.61
2017-09-23T01:53:06.902Z,14.62
2017-09-23T01:53:47.435Z,14.62
2017-09-23T01:54:27.983Z,14.68
2017-09-23T01:55:08.519Z,14.69
2017-09-23T01:55:49.067Z,14.62
2017-09-23T01:56:29.612Z,14.62
2017-09-23T01:57:10.151Z,14.61
2017-09-23T01:57:50.690Z,14.6
2017-09-23T01:58:31.233Z,14.6
2017-09-23T01:59:11.768Z,14.61
2017-09-23T01:59:52.303Z,14.62
2017-09-23T02:00:32.841Z,14.7
2017-09-23T02:01:13.380Z,14.61
2017-09-23T02:01:53.918Z,14.65
2017-09-23T02:02:34.456Z,14.69
2017-09-23T02:03:14.994Z,14.62
2017-09-23T02:03:55.536Z,14.69
2017-09-23T02:04:36.074Z,14.65
2017-09-23T02:05:16.607Z,14.8
2017-09-23T02:05:57.145Z,14.64
2017-09-23T02:06:37.676Z,14.72
2017-09-23T02:07:18.204Z,14.7
2017-09-23T02:07:58.740Z,14.75
2017-09-23T02:08:39.280Z,14.73
2017-09-23T02:09:19.820Z,14.73
2017-09-23T02:10:00.359Z,14.75
2017-09-23T02:10:40.895Z,14.64
2017-09-23T02:11:21.434Z,14.75
2017-09-23T02:12:01.976Z,14.73
2017-09-23T02:12:42.512Z,14.75
2017-09-23T02:13:23.036Z,14.8
2017-09-23T02:14:03.579Z,14.73
2017-09-23T02:14:44.114Z,14.73
2017-09-23T02:15:24.662Z,14.77
2017-09-23T02:16:05.181Z,14.72
2017-09-23T02:16:45.712Z,14.77
2017-09-23T02:17:26.243Z,14.73
2017-09-23T02:18:06.799Z,14.73
2017-09-23T02:18:47.337Z,14.77
2017-09-23T02:19:27.874Z,14.75
2017-09-23T02:20:08.416Z,14.77
2017-09-23T02:20:48.953Z,14.73
2017-09-23T02:21:29.504Z,14.77
2017-09-23T02:22:10.039Z,14.73
2017-09-23T02:22:50.584Z,14.77
2017-09-23T02:23:31.117Z,14.77
2017-09-23T02:24:11.652Z,14.68
2017-09-23T02:24:52.194Z,14.75
2017-09-23T02:25:32.726Z,14.78
2017-09-23T02:26:13.262Z,14.8
2017-09-23T02:26:53.797Z,14.7
2017-09-23T02:27:34.340Z,14.8
2017-09-23T02:28:14.874Z,14.75
2017-09-23T02:28:55.417Z,14.77
2017-09-23T02:29:35.961Z,14.73
2017-09-23T02:30:16.498Z,14.77
2017-09-23T02:30:57.033Z,14.75
2017-09-23T02:31:37.571Z,14.73
2017-09-23T02:32:18.115Z,14.72
2017-09-23T02:32:58.646Z,14.81
2017-09-23T02:33:39.181Z,14.78
2017-09-23T02:34:19.721Z,14.77
2017-09-23T02:35:00.276Z,14.77
2017-09-23T02:35:40.799Z,14.78
2017-09-23T02:36:21.323Z,14.83
2017-09-23T02:37:01.870Z,14.77
2017-09-23T02:37:42.399Z,14.8
2017-09-23T02:38:22.939Z,14.75
2017-09-23T02:39:03.474Z,14.72
2017-09-23T02:39:44.003Z,14.75
2017-09-23T02:40:24.553Z,14.73
2017-09-23T02:41:05.085Z,14.75
2017-09-23T02:41:45.631Z,14.83
2017-09-23T02:42:26.161Z,14.81
2017-09-23T02:43:06.694Z,14.78
2017-09-23T02:43:47.224Z,14.77
2017-09-23T02:44:27.752Z,14.75
2017-09-23T02:45:08.295Z,14.81
2017-09-23T02:45:48.830Z,14.75
2017-09-23T02:46:29.367Z,14.77
2017-09-23T02:47:09.908Z,14.73
2017-09-23T02:47:50.435Z,14.81
2017-09-23T02:48:30.982Z,14.77
2017-09-23T02:49:11.512Z,14.75
2017-09-23T02:49:52.040Z,14.8
2017-09-23T02:50:32.585Z,14.7
2017-09-23T02:51:13.120Z,14.77
2017-09-23T02:51:53.657Z,14.72
2017-09-23T02:52:34.195Z,14.8
2017-09-23T02:53:14.739Z,14.81
2017-09-23T02:53:55.272Z,14.72
2017-09-23T02:54:35.810Z,14.75
2017-09-23T02:55:16.345Z,14.8
2017-09-23T02:55:56.884Z,14.73
2017-09-23T02:56:37.426Z,14.73
2017-09-23T02:57:17.962Z,14.77
2017-09-23T02:57:58.498Z,14.77
2017-09-23T02:58:39.030Z,14.77
2017-09-23T02:59:19.570Z,14.78
2017-09-23T03:00:00.104Z,14.8
2017-09-23T03:00:40.645Z,14.81
2017-09-23T03:01:21.176Z,14.78
2017-09-23T03:02:01.718Z,14.8
2017-09-23T03:02:42.258Z,14.75
2017-09-23T03:03:22.788Z,14.84
2017-09-23T03:04:03.322Z,14.77
2017-09-23T03:04:43.850Z,14.78
2017-09-23T03:05:24.388Z,14.73
2017-09-23T03:06:04.925Z,14.81
2017-09-23T03:06:45.461Z,14.81
2017-09-23T03:07:25.999Z,14.86
2017-09-23T03:08:06.536Z,14.75
2017-09-23T03:08:47.076Z,14.84
2017-09-23T03:09:27.609Z,14.81
2017-09-23T03:10:08.146Z,14.83
2017-09-23T03:10:48.685Z,14.81
2017-09-23T03:11:29.228Z,14.84
2017-09-23T03:12:09.762Z,14.88
2017-09-23T03:12:50.303Z,14.83
2017-09-23T03:13:30.829Z,14.84
2017-09-23T03:14:11.367Z,14.84
2017-09-23T03:14:51.898Z,14.88
2017-09-23T03:15:32.441Z,14.86
2017-09-23T03:16:12.978Z,14.83
2017-09-23T03:16:53.516Z,14.88
2017-09-23T03:17:34.069Z,14.81
2017-09-23T03:18:14.610Z,14.8
2017-09-23T03:18:55.130Z,14.92
2017-09-23T03:19:35.666Z,14.86
2017-09-23T03:20:16.221Z,14.94
2017-09-23T03:20:56.742Z,14.8
2017-09-23T03:21:37.286Z,14.98
2017-09-23T03:22:17.820Z,14.84
2017-09-23T03:22:58.360Z,14.91
2017-09-23T03:23:38.901Z,14.86
2017-09-23T03:24:19.437Z,14.92
2017-09-23T03:24:59.974Z,14.95
2017-09-23T03:25:40.510Z,14.95
2017-09-23T03:26:21.047Z,14.94
2017-09-23T03:27:01.588Z,14.84
2017-09-23T03:27:42.124Z,14.94
2017-09-23T03:28:22.668Z,14.86
2017-09-23T03:29:03.208Z,14.96
2017-09-23T03:29:43.741Z,14.92
2017-09-23T03:30:24.273Z,14.94
2017-09-23T03:31:04.818Z,14.96
2017-09-23T03:31:45.356Z,14.98
2017-09-23T03:32:25.896Z,14.91
2017-09-23T03:33:06.442Z,14.98
2017-09-23T03:33:46.981Z,14.96
2017-09-23T03:34:27.527Z,14.92
2017-09-23T03:35:08.063Z,14.84
2017-09-23T03:35:48.601Z,14.94
2017-09-23T03:36:29.140Z,14.89
2017-09-23T03:37:09.709Z,14.92
2017-09-23T03:37:50.203Z,14.92
2017-09-23T03:38:30.748Z,14.95
2017-09-23T03:39:11.290Z,14.91
2017-09-23T03:39:51.829Z,14.96
2017-09-23T03:40:32.371Z,14.94
2017-09-23T03:41:12.898Z,14.95
2017-09-23T03:41:53.435Z,14.94
2017-09-23T03:42:33.974Z,14.95
2017-09-23T03:43:14.516Z,14.95
2017-09-23T03:43:55.055Z,14.94
2017-09-23T03:44:35.596Z,14.96
2017-09-23T03:45:16.136Z,14.98
2017-09-23T03:45:56.669Z,14.95
2017-09-23T03:46:37.211Z,14.92
2017-09-23T03:47:17.749Z,14.95
2017-09-23T03:47:58.281Z,14.98
2017-09-23T03:48:38.821Z,14.95
2017-09-23T03:49:19.359Z,14.95
2017-09-23T03:49:59.908Z,14.92
2017-09-23T03:50:40.443Z,14.95
2017-09-23T03:51:20.979Z,14.95
2017-09-23T03:52:01.516Z,14.98
2017-09-23T03:52:42.054Z,14.94
2017-09-23T03:53:22.627Z,14.96
2017-09-23T03:54:03.152Z,14.92
2017-09-23T03:54:43.699Z,14.98
2017-09-23T03:55:24.228Z,14.95
2017-09-23T03:56:04.754Z,14.95
2017-09-23T03:56:45.291Z,14.89
2017-09-23T03:57:25.834Z,14.99
2017-09-23T03:58:06.373Z,14.99
2017-09-23T03:58:46.910Z,14.96
2017-09-23T03:59:27.450Z,14.99
2017-09-23T04:00:07.988Z,14.98
2017-09-23T04:00:48.533Z,14.92
2017-09-23T04:01:29.071Z,14.98
2017-09-23T04:02:09.606Z,14.94
2017-09-23T04:02:50.151Z,15.02
2017-09-23T04:03:30.688Z,14.98
2017-09-23T04:04:11.226Z,14.92
2017-09-23T04:04:51.764Z,14.98
2017-09-23T04:05:32.303Z,15.01
2017-09-23T04:06:12.844Z,14.96
2017-09-23T04:06:53.381Z,14.98
2017-09-23T04:07:33.917Z,14.94
2017-09-23T04:08:14.456Z,14.96
2017-09-23T04:08:54.994Z,14.98
2017-09-23T04:09:35.521Z,14.98
2017-09-23T04:10:16.051Z,14.92
2017-09-23T04:10:56.582Z,14.89
2017-09-23T04:11:37.122Z,14.95
2017-09-23T04:12:17.655Z,14.98
2017-09-23T04:12:58.192Z,14.92
2017-09-23T04:13:38.733Z,14.98
2017-09-23T04:14:19.268Z,14.91
2017-09-23T04:14:59.801Z,14.96
2017-09-23T04:15:40.353Z,14.96
2017-09-23T04:16:20.882Z,14.91
2017-09-23T04:17:01.426Z,14.92
2017-09-23T04:17:41.979Z,14.98
2017-09-23T04:18:22.487Z,14.92
2017-09-23T04:19:03.024Z,14.96
2017-09-23T04:19:43.556Z,14.99
2017-09-23T04:20:24.090Z,14.96
2017-09-23T04:21:04.640Z,14.99
2017-09-23T04:21:45.171Z,14.98
2017-09-23T04:22:25.716Z,14.98
2017-09-23T04:23:06.257Z,14.92
2017-09-23T04:23:46.884Z,14.95
2017-09-23T04:24:27.424Z,14.95
2017-09-23T04:25:07.975Z,14.92
2017-09-23T04:25:48.492Z,14.98
2017-09-23T04:26:29.029Z,14.95
2017-09-23T04:27:09.572Z,14.99
2017-09-23T04:27:50.111Z,14.92
2017-09-23T04:28:30.643Z,14.99
2017-09-23T04:29:11.189Z,14.99
2017-09-23T04:29:51.723Z,14.98
2017-09-23T04:30:32.264Z,14.98
2017-09-23T04:31:12.802Z,14.96
2017-09-23T04:31:53.334Z,14.96
2017-09-23T04:32:33.876Z,15.02
2017-09-23T04:33:14.416Z,14.99
2017-09-23T04:33:54.951Z,14.94
2017-09-23T04:34:35.490Z,14.96
2017-09-23T04:35:16.029Z,14.98
2017-09-23T04:35:56.569Z,14.92
2017-09-23T04:36:37.107Z,14.96
2017-09-23T04:37:17.642Z,14.96
2017-09-23T04:37:58.178Z,14.98
2017-09-23T04:38:38.716Z,14.95
2017-09-23T04:39:19.258Z,14.92
2017-09-23T04:39:59.800Z,14.99
2017-09-23T04:40:40.329Z,14.99
2017-09-23T04:41:20.870Z,14.98
2017-09-23T04:42:01.420Z,14.99
2017-09-23T04:42:41.957Z,14.94
2017-09-23T04:43:22.494Z,14.91
2017-09-23T04:44:03.034Z,14.95
2017-09-23T04:44:43.566Z,14.96
2017-09-23T04:45:24.104Z,14.95
2017-09-23T04:46:04.641Z,14.92
2017-09-23T04:46:45.185Z,14.98
2017-09-23T04:47:25.712Z,14.96
2017-09-23T04:48:06.248Z,14.98
2017-09-23T04:48:46.785Z,14.92
2017-09-23T04:49:27.318Z,14.95
2017-09-23T04:50:07.862Z,14.92
2017-09-23T04:50:48.391Z,14.88
2017-09-23T04:51:28.925Z,14.91
2017-09-23T04:52:09.465Z,14.99
2017-09-23T04:52:50.003Z,15.01
2017-09-23T04:53:30.544Z,14.96
2017-09-23T04:54:11.081Z,14.83
2017-09-23T04:54:51.647Z,14.86
2017-09-23T04:55:32.143Z,14.96
2017-09-23T04:56:12.675Z,14.92
2017-09-23T04:56:53.218Z,14.84
2017-09-23T04:57:33.754Z,14.83
2017-09-23T04:58:14.290Z,14.77
2017-09-23T04:58:54.818Z,14.81
2017-09-23T04:59:35.356Z,14.78
2017-09-23T05:00:15.895Z,14.86
2017-09-23T05:00:56.433Z,14.83
2017-09-23T05:01:36.974Z,14.92
2017-09-23T05:02:17.513Z,14.84
2017-09-23T05:02:58.055Z,14.8
2017-09-23T05:03:38.591Z,14.83
2017-09-23T05:04:19.127Z,14.8
2017-09-23T05:04:59.677Z,14.95
2017-09-23T05:05:40.191Z,14.88
2017-09-23T05:06:20.729Z,14.81
2017-09-23T05:07:01.265Z,14.84
2017-09-23T05:07:41.796Z,14.86
2017-09-23T05:08:22.328Z,14.88
2017-09-23T05:09:02.865Z,14.86
2017-09-23T05:09:43.403Z,14.88
2017-09-23T05:10:23.931Z,14.78
2017-09-23T05:11:04.467Z,14.89
2017-09-23T05:11:45.010Z,14.83
2017-09-23T05:12:25.547Z,14.86
2017-09-23T05:13:06.076Z,14.83
2017-09-23T05:13:46.608Z,14.84
2017-09-23T05:14:27.147Z,14.81
2017-09-23T05:15:07.684Z,14.88
2017-09-23T05:15:48.271Z,14.88
2017-09-23T05:16:28.806Z,14.92
2017-09-23T05:17:09.347Z,14.86
2017-09-23T05:17:49.887Z,14.84
2017-09-23T05:18:30.429Z,14.92
2017-09-23T05:19:10.969Z,14.83
2017-09-23T05:19:51.507Z,14.84
2017-09-23T05:20:32.042Z,14.81
2017-09-23T05:21:12.580Z,14.92
2017-09-23T05:21:53.115Z,14.84
2017-09-23T05:22:33.653Z,14.83
2017-09-23T05:23:14.193Z,14.83
2017-09-23T05:23:54.730Z,14.8
2017-09-23T05:24:35.272Z,14.86
2017-09-23T05:25:15.822Z,14.84
2017-09-23T05:25:56.357Z,14.88
2017-09-23T05:26:36.895Z,14.95
2017-09-23T05:27:17.431Z,14.8
2017-09-23T05:27:57.968Z,14.95
2017-09-23T05:28:38.519Z,14.86
2017-09-23T05:29:19.049Z,14.86
2017-09-23T05:29:59.589Z,14.88
2017-09-23T05:30:40.118Z,14.84
2017-09-23T05:31:20.640Z,14.86
2017-09-23T05:32:01.184Z,14.81
2017-09-23T05:32:41.710Z,14.83
2017-09-23T05:33:22.253Z,14.83
2017-09-23T05:34:02.788Z,14.8
2017-09-23T05:34:43.330Z,14.88
2017-09-23T05:35:23.885Z,14.92
2017-09-23T05:36:04.413Z,14.8
2017-09-23T05:36:44.948Z,14.83
2017-09-23T05:37:25.484Z,14.83
2017-09-23T05:38:06.018Z,14.86
2017-09-23T05:38:46.556Z,14.88
2017-09-23T05:39:27.091Z,14.83
2017-09-23T05:40:07.633Z,14.83
2017-09-23T05:40:48.173Z,14.83
2017-09-23T05:41:28.704Z,14.84
2017-09-23T05:42:09.249Z,14.86
2017-09-23T05:42:49.786Z,14.83
2017-09-23T05:43:30.332Z,14.8
2017-09-23T05:44:10.882Z,14.84
2017-09-23T05:44:51.420Z,14.86
2017-09-23T05:45:31.964Z,14.84
2017-09-23T05:46:12.507Z,14.91
2017-09-23T05:46:53.046Z,14.89
2017-09-23T05:47:33.584Z,14.91
2017-09-23T05:48:14.112Z,14.92
2017-09-23T05:48:54.641Z,14.91
2017-09-23T05:49:35.172Z,14.96
2017-09-23T05:50:15.708Z,14.96
2017-09-23T05:50:56.244Z,14.92
2017-09-23T05:51:36.793Z,14.98
2017-09-23T05:52:17.332Z,14.92
2017-09-23T05:52:57.870Z,14.92
2017-09-23T05:53:38.403Z,14.96
2017-09-23T05:54:18.940Z,14.91
2017-09-23T05:54:59.477Z,14.91
2017-09-23T05:55:40.009Z,14.91
2017-09-23T05:56:20.550Z,14.95
2017-09-23T05:57:01.091Z,14.83
2017-09-23T05:57:41.627Z,14.88
2017-09-23T05:58:22.164Z,14.92
2017-09-23T05:59:02.702Z,14.89
2017-09-23T05:59:43.251Z,14.91
2017-09-23T06:00:23.775Z,14.88
2017-09-23T06:01:04.310Z,14.89
2017-09-23T06:01:44.853Z,14.88
2017-09-23T06:02:25.390Z,14.91
2017-09-23T06:03:05.924Z,14.86
2017-09-23T06:03:46.468Z,14.88
2017-09-23T06:04:27.004Z,14.95
2017-09-23T06:05:07.543Z,14.91
2017-09-23T06:05:48.079Z,14.86
2017-09-23T06:06:28.617Z,14.96
2017-09-23T06:07:09.156Z,14.94
2017-09-23T06:07:49.699Z,14.99
2017-09-23T06:08:30.239Z,14.98
2017-09-23T06:09:10.776Z,14.94
2017-09-23T06:09:51.314Z,14.95
2017-09-23T06:10:31.853Z,14.96
2017-09-23T06:11:12.384Z,14.89
2017-09-23T06:11:52.910Z,14.92
2017-09-23T06:12:33.455Z,14.95
2017-09-23T06:13:13.990Z,14.92
2017-09-23T06:13:54.524Z,14.96
2017-09-23T06:14:35.060Z,14.98
2017-09-23T06:15:15.583Z,14.94
2017-09-23T06:15:56.162Z,14.89
2017-09-23T06:16:36.697Z,14.99
2017-09-23T06:17:17.230Z,14.94
2017-09-23T06:17:57.771Z,14.98
2017-09-23T06:18:38.304Z,15.01
2017-09-23T06:19:18.844Z,14.98
2017-09-23T06:19:59.379Z,14.95
2017-09-23T06:20:39.917Z,15.01
2017-09-23T06:21:20.463Z,14.99
2017-09-23T06:22:00.982Z,14.96
2017-09-23T06:22:41.526Z,14.96
2017-09-23T06:23:22.065Z,14.96
2017-09-23T06:24:02.596Z,14.95
2017-09-23T06:24:43.164Z,14.95
2017-09-23T06:25:23.692Z,14.96
2017-09-23T06:26:04.237Z,14.91
2017-09-23T06:26:44.768Z,15.01
2017-09-23T06:27:25.313Z,14.95
2017-09-23T06:28:05.848Z,15.01
2017-09-23T06:28:46.384Z,15.03
2017-09-23T06:29:26.931Z,14.99
2017-09-23T06:30:07.457Z,15.07
2017-09-23T06:30:47.980Z,15.09
2017-09-23T06:31:28.532Z,15.03
2017-09-23T06:32:09.048Z,15.07
2017-09-23T06:32:49.582Z,15.1
2017-09-23T06:33:30.120Z,15.09
2017-09-23T06:34:10.679Z,14.99
2017-09-23T06:34:51.176Z,15.03
2017-09-23T06:35:31.706Z,15.07
2017-09-23T06:36:12.261Z,15.02
2017-09-23T06:36:52.806Z,15.03
2017-09-23T06:37:33.368Z,15.09
2017-09-23T06:38:13.916Z,15.1
2017-09-23T06:38:54.474Z,15.07
2017-09-23T06:39:35.007Z,15.11
2017-09-23T06:40:15.539Z,15.06
2017-09-23T06:40:56.073Z,15.07
2017-09-23T06:41:36.616Z,15.09
2017-09-23T06:42:17.150Z,15.06
2017-09-23T06:42:57.716Z,15.03
2017-09-23T06:43:38.246Z,15.09
2017-09-23T06:44:18.790Z,15.11
2017-09-23T06:44:59.335Z,15.06
2017-09-23T06:45:39.865Z,15.02
2017-09-23T06:46:20.441Z,15.06
2017-09-23T06:47:01.038Z,15.17
2017-09-23T06:47:41.612Z,15.16
2017-09-23T06:48:22.152Z,15.13
2017-09-23T06:49:02.691Z,15.11
2017-09-23T06:49:43.267Z,15.14
2017-09-23T06:50:23.804Z,15.19
2017-09-23T06:51:04.355Z,15.17
2017-09-23T06:51:44.891Z,15.09
2017-09-23T06:52:25.418Z,15.09
2017-09-23T06:53:05.962Z,15.14
2017-09-23T06:53:46.498Z,15.02
2017-09-23T06:54:27.039Z,15.07
2017-09-23T06:55:07.581Z,15.02
2017-09-23T06:55:48.105Z,15.02
2017-09-23T06:56:28.647Z,14.95
2017-09-23T06:57:09.174Z,15.09
2017-09-23T06:57:49.746Z,15.02
2017-09-23T06:58:30.270Z,14.95
2017-09-23T06:59:10.811Z,14.99
2017-09-23T06:59:51.380Z,15.02
2017-09-23T07:00:31.918Z,15.01
2017-09-23T07:01:12.458Z,14.96
2017-09-23T07:01:53.000Z,14.95
2017-09-23T07:02:33.544Z,14.91
2017-09-23T07:03:14.088Z,14.92
2017-09-23T07:03:54.618Z,14.94
2017-09-23T07:04:35.337Z,14.95
2017-09-23T07:05:15.869Z,15.01
2017-09-23T07:05:56.416Z,14.98
2017-09-23T07:06:36.955Z,15.1
2017-09-23T07:07:17.610Z,14.95
2017-09-23T07:07:58.127Z,15.01
2017-09-23T07:08:38.680Z,15.02
2017-09-23T07:09:19.210Z,15.03
2017-09-23T07:09:59.744Z,15.07
2017-09-23T07:10:40.276Z,14.98
2017-09-23T07:11:21.850Z,14.94
2017-09-23T07:12:02.364Z,15.09
2017-09-23T07:12:42.904Z,14.98
2017-09-23T07:13:23.586Z,15.03
2017-09-23T07:14:04.778Z,15.03
2017-09-23T07:14:45.294Z,15.07
2017-09-23T07:15:25.843Z,15.03
2017-09-23T07:16:06.355Z,15.09
2017-09-23T07:16:46.884Z,15.07
2017-09-23T07:17:27.425Z,15.14
2017-09-23T07:18:07.930Z,15.02
2017-09-23T07:18:48.478Z,15.11
2017-09-23T07:19:29.009Z,15.06
2017-09-23T07:20:09.528Z,15.19
2017-09-23T07:20:50.073Z,15.09
2017-09-23T07:21:30.612Z,14.96
2017-09-23T07:22:11.163Z,15.03
2017-09-23T07:22:51.694Z,15.03
2017-09-23T07:23:32.224Z,15.02
2017-09-23T07:24:12.753Z,14.98
2017-09-23T07:24:53.282Z,15.07
2017-09-23T07:25:33.822Z,15.07
2017-09-23T07:26:14.367Z,15.16
2017-09-23T07:26:54.903Z,15.06
2017-09-23T07:27:35.447Z,15.1
2017-09-23T07:28:15.982Z,15.06
2017-09-23T07:28:56.520Z,15.11
2017-09-23T07:29:37.048Z,15.07
2017-09-23T07:30:17.588Z,15.02
2017-09-23T07:30:58.127Z,15.06
2017-09-23T07:31:38.657Z,15.01
2017-09-23T07:32:19.185Z,14.94
2017-09-23T07:32:59.729Z,14.99
2017-09-23T07:33:40.256Z,14.98
2017-09-23T07:34:20.802Z,14.92
2017-09-23T07:35:01.340Z,14.92
2017-09-23T07:35:41.881Z,15.07
2017-09-23T07:36:22.411Z,15.03
2017-09-23T07:37:02.944Z,15.03
2017-09-23T07:37:43.476Z,15.03
2017-09-23T07:38:24.031Z,15.06
2017-09-23T07:39:04.564Z,15.06
2017-09-23T07:39:45.102Z,15.1
2017-09-23T07:40:25.650Z,15.1
2017-09-23T07:41:06.176Z,15.19
2017-09-23T07:41:46.708Z,15.16
2017-09-23T07:42:27.345Z,15.19
2017-09-23T07:43:08.148Z,15.17
2017-09-23T07:43:48.686Z,15.16
2017-09-23T07:44:29.408Z,15.17
2017-09-23T07:45:09.760Z,15.2
2017-09-23T07:45:50.298Z,15.25
2017-09-23T07:46:30.817Z,15.21
2017-09-23T07:47:11.351Z,15.17
2017-09-23T07:47:51.880Z,15.23
2017-09-23T07:48:32.416Z,15.25
2017-09-23T07:49:12.961Z,15.23
2017-09-23T07:49:53.500Z,15.2
2017-09-23T07:50:34.019Z,15.31
2017-09-23T07:51:14.555Z,15.29
2017-09-23T07:51:55.086Z,15.32
2017-09-23T07:52:35.612Z,15.43
2017-09-23T07:53:16.167Z,15.47
2017-09-23T07:53:56.710Z,15.46
2017-09-23T07:54:37.242Z,15.59
2017-09-23T07:55:17.775Z,15.56
2017-09-23T07:55:58.322Z,15.59
2017-09-23T07:56:38.850Z,15.54
2017-09-23T07:57:19.392Z,15.69
2017-09-23T07:57:59.926Z,15.57
2017-09-23T07:58:40.465Z,15.62
2017-09-23T07:59:21.007Z,15.56
2017-09-23T08:00:01.543Z,15.6
2017-09-23T08:00:42.082Z,15.57
2017-09-23T08:01:22.616Z,15.56
2017-09-23T08:02:03.163Z,15.57
2017-09-23T08:02:43.697Z,15.57
2017-09-23T08:03:24.235Z,15.64
2017-09-23T08:04:04.778Z,15.56
2017-09-23T08:04:45.323Z,15.5
2017-09-23T08:05:25.861Z,15.5
2017-09-23T08:06:06.398Z,15.56
2017-09-23T08:06:46.939Z,15.64
2017-09-23T08:07:27.479Z,15.64
2017-09-23T08:08:08.022Z,15.57
2017-09-23T08:08:48.560Z,15.59
2017-09-23T08:09:29.100Z,15.65
2017-09-23T08:10:09.641Z,15.54
2017-09-23T08:10:50.181Z,15.6
2017-09-23T08:11:30.721Z,15.65
2017-09-23T08:12:11.256Z,15.64
2017-09-23T08:12:51.794Z,15.69
2017-09-23T08:13:32.334Z,15.71
2017-09-23T08:14:12.893Z,15.74
2017-09-23T08:14:53.484Z,15.78
2017-09-23T08:15:34.006Z,15.78
2017-09-23T08:16:14.585Z,15.83
2017-09-23T08:16:55.155Z,15.92
2017-09-23T08:17:35.672Z,15.97
2017-09-23T08:18:17.021Z,16.04
2017-09-23T08:18:57.664Z,16
2017-09-23T08:19:38.202Z,16.08
2017-09-23T08:20:18.760Z,16.15
2017-09-23T08:20:59.239Z,16.21
2017-09-23T08:21:39.776Z,16.28
2017-09-23T08:22:20.324Z,16.24
2017-09-23T08:23:00.866Z,16.33
2017-09-23T08:23:41.410Z,16.3
2017-09-23T08:24:21.947Z,16.42
2017-09-23T08:25:02.513Z,16.43
2017-09-23T08:25:43.027Z,16.49
2017-09-23T08:26:23.566Z,16.57
2017-09-23T08:27:04.104Z,16.71
2017-09-23T08:27:44.647Z,16.79
2017-09-23T08:28:25.182Z,16.88
2017-09-23T08:29:05.720Z,16.98
2017-09-23T08:29:46.254Z,16.96
2017-09-23T08:30:26.796Z,17.04
2017-09-23T08:31:07.345Z,17.18
2017-09-23T08:31:47.881Z,17.19
2017-09-23T08:32:28.429Z,17.28
2017-09-23T08:33:08.971Z,17.28
2017-09-23T08:33:49.514Z,17.33
2017-09-23T08:34:30.074Z,17.19
2017-09-23T08:35:10.626Z,17.19
2017-09-23T08:35:51.164Z,17.07
2017-09-23T08:36:31.693Z,16.93
2017-09-23T08:37:12.230Z,16.89
2017-09-23T08:37:52.759Z,16.83
2017-09-23T08:38:33.305Z,16.81
2017-09-23T08:39:13.853Z,16.86
2017-09-23T08:39:54.401Z,16.86
2017-09-23T08:40:34.939Z,16.81
2017-09-23T08:41:15.481Z,16.81
2017-09-23T08:41:56.077Z,16.81
2017-09-23T08:42:36.632Z,16.78
2017-09-23T08:43:17.153Z,16.75